Plainfield, Wisconsin
Current Conditions -  °F | °C
As of 11:56 PM on Tuesday 25 Nov 2014 (Local Time) from KY50 Reporting Station
Overcast Overcast  
Wind Chill:   Ceiling: 5000
Heat Index:   Visibility: 10mi
Dew Point:   Wind: 0mph
Humidity: 84%   Direction: NA
Pressure: 30.16"   Gusts: NA
Location:  44.21°N, 89.49°W
Report Text: KY50 260556Z AUTO 00000KT 10SM OVC050 M15/M17 A3016 RMK AO2 TSNO 51013 T11501172 11100 21166 410381166 OVC V BKN SLP226
Loading
Personal Weather Stations






























Interactive Weather Map New forecast layout! Learn more

10-Day Weather Forecast

Advertisements
Track Severe Weather on mobile